Time;durP1;ratioP1;P1;durP2;ratioP2;P2;SDS_P1;SDS_P2;PMS_P1;PMS_P2;Temp;Humidity;BMP_temperature;BMP_pressure;BME280_temperature;BME280_humidity;BME280_pressure;Samples;Min_cycle;Max_cycle;Signal;HPM_P1;HPM_P2
2022/04/18 00:00:49;;;;;;;0.80;0.80;;;;;;;-0.35;50.77;99640.09;4769015;30;20121;-82
2022/04/18 00:03:18;;;;;;;0.65;0.65;;;;;;;-0.33;50.63;99631.94;4769706;30;20142;-82
2022/04/18 00:05:51;;;;;;;0.73;0.73;;;;;;;-0.35;50.95;99639.28;4782141;30;20060;-82
2022/04/18 00:08:21;;;;;;;0.70;0.70;;;;;;;-0.41;50.81;99635.41;4782578;29;20543;-81
2022/04/18 00:10:50;;;;;;;0.77;0.77;;;;;;;-0.45;51.05;99639.38;4767717;30;20059;-82
2022/04/18 00:13:19;;;;;;;0.88;0.88;;;;;;;-0.50;51.23;99646.97;4768973;30;20086;-80
2022/04/18 00:15:49;;;;;;;0.80;0.80;;;;;;;-0.64;51.75;99640.41;4784533;30;20091;-81
2022/04/18 00:18:18;;;;;;;0.85;0.85;;;;;;;-0.69;51.80;99638.22;4774858;30;20048;-80
2022/04/18 00:20:47;;;;;;;0.90;0.90;;;;;;;-0.71;51.84;99634.06;4777565;30;20501;-81
2022/04/18 00:23:20;;;;;;;0.70;0.70;;;;;;;-0.75;52.00;99638.03;4786770;30;20055;-81
2022/04/18 00:25:49;;;;;;;0.85;0.85;;;;;;;-0.80;52.17;99633.22;4785115;29;20198;-79
2022/04/18 00:28:20;;;;;;;0.77;0.77;;;;;;;-0.84;52.59;99633.66;4745644;29;1279941;-82
2022/04/18 00:30:49;;;;;;;0.70;0.70;;;;;;;-0.88;52.48;99631.34;4786596;30;20108;-80
2022/04/18 00:33:20;;;;;;;0.73;0.73;;;;;;;-0.87;52.42;99635.63;4785063;30;20086;-82
2022/04/18 00:36:07;;;;;;;0.75;0.75;;;;;;;-0.85;52.37;99632.03;4759336;30;20173;-81
2022/04/18 00:38:44;;;;;;;0.82;0.82;;;;;;;-0.85;52.34;99624.06;4785943;30;20089;-80
2022/04/18 00:41:19;;;;;;;0.90;0.90;;;;;;;-0.83;52.04;99630.88;4771302;30;20063;-81
2022/04/18 00:43:57;;;;;;;0.80;0.80;;;;;;;-0.81;51.96;99630.69;4786117;29;20138;-80
2022/04/18 00:46:28;;;;;;;0.80;0.80;;;;;;;-0.85;52.21;99632.84;4800885;29;20059;-82
2022/04/18 00:49:17;;;;;;;0.73;0.73;;;;;;;-0.88;52.09;99633.16;4786464;29;20058;-80
2022/04/18 00:52:03;;;;;;;0.73;0.73;;;;;;;-0.87;52.40;99629.50;4772493;30;20542;-82
2022/04/18 00:54:45;;;;;;;0.80;0.80;;;;;;;-0.93;52.30;99628.31;4798899;29;20124;-82
2022/04/18 00:57:23;;;;;;;0.85;0.85;;;;;;;-0.94;52.07;99629.31;4772265;30;20081;-82
2022/04/18 00:59:55;;;;;;;0.65;0.65;;;;;;;-0.95;52.25;99626.81;4771717;30;20051;-82
2022/04/18 01:02:36;;;;;;;0.85;0.85;;;;;;;-0.97;52.20;99634.91;4772211;30;20062;-81
2022/04/18 01:05:13;;;;;;;0.70;0.70;;;;;;;-0.94;52.00;99634.63;4786121;30;20094;-84
2022/04/18 01:07:40;;;;;;;0.80;0.80;;;;;;;-0.95;52.13;99626.81;4800943;29;20138;-84
2022/04/18 01:10:08;;;;;;;0.88;0.88;;;;;;;-0.97;52.31;99624.31;4771572;30;20079;-83
2022/04/18 01:12:38;;;;;;;0.90;0.90;;;;;;;-0.99;52.28;99626.28;4787560;30;20051;-85
2022/04/18 01:15:08;;;;;;;0.82;0.82;;;;;;;-0.98;52.37;99611.22;4786026;30;20167;-83
2022/04/18 01:18:01;;;;;;;0.70;0.70;;;;;;;-1.00;52.36;99611.38;4783975;30;20066;-82
2022/04/18 01:20:48;;;;;;;0.80;0.80;;;;;;;-1.04;52.69;99602.06;4777362;29;20051;-83
2022/04/18 01:23:46;;;;;;;0.63;0.63;;;;;;;-1.11;52.79;99609.00;4758675;30;20846;-82
2022/04/18 01:29:29;;;;;;;0.70;0.70;;;;;;;-1.17;53.11;99606.94;4686352;30;20101;-83
2022/04/18 01:31:56;;;;;;;0.80;0.80;;;;;;;-1.23;53.48;99610.22;4672105;30;20070;-81
2022/04/18 01:34:23;;;;;;;0.77;0.77;;;;;;;-1.23;53.70;99607.56;4687425;30;20164;-82
2022/04/18 01:36:50;;;;;;;0.80;0.80;;;;;;;-1.25;53.64;99599.75;4687608;30;20073;-81
2022/04/18 01:39:17;;;;;;;0.90;0.90;;;;;;;-1.21;53.41;99605.59;4659758;30;20064;-83
2022/04/18 01:41:45;;;;;;;0.68;0.68;;;;;;;-1.28;53.58;99607.19;4686918;30;20132;-82
2022/04/18 01:44:13;;;;;;;0.70;0.70;;;;;;;-1.31;53.94;99614.47;4671934;30;20064;-81
2022/04/18 01:46:40;;;;;;;0.80;0.80;;;;;;;-1.30;53.87;99612.63;4674265;30;20192;-82
2022/04/18 01:49:09;;;;;;;0.70;0.70;;;;;;;-1.28;53.96;99610.69;4681783;30;20057;-83
2022/04/18 01:51:36;;;;;;;0.80;0.80;;;;;;;-1.38;54.33;99626.66;4681924;30;20080;-84
2022/04/18 01:54:07;;;;;;;0.73;0.73;;;;;;;-1.44;54.40;99618.47;4696228;30;20074;-82
2022/04/18 01:56:34;;;;;;;0.90;0.90;;;;;;;-1.40;54.25;99622.50;4678739;30;20156;-82
2022/04/18 01:59:02;;;;;;;0.77;0.77;;;;;;;-1.45;54.42;99625.59;4667767;30;20119;-83
2022/04/18 02:01:35;;;;;;;0.65;0.65;;;;;;;-1.49;54.94;99623.38;4724101;30;20074;-83
2022/04/18 02:04:03;;;;;;;0.52;0.52;;;;;;;-1.56;54.92;99617.88;4756738;30;20056;-83
2022/04/18 02:06:30;;;;;;;0.60;0.60;;;;;;;-1.61;55.19;99618.34;4751327;30;20064;-82
2022/04/18 02:08:57;;;;;;;0.80;0.80;;;;;;;-1.65;55.52;99618.78;4750341;30;20524;-85
2022/04/18 02:11:26;;;;;;;0.80;0.80;;;;;;;-1.66;55.74;99617.13;4752267;30;20068;-84
2022/04/18 02:13:55;;;;;;;0.85;0.85;;;;;;;-1.65;55.63;99614.31;4778242;30;20151;-83
2022/04/18 02:16:23;;;;;;;0.70;0.70;;;;;;;-1.66;55.49;99617.13;4783196;30;20057;-83
2022/04/18 02:18:53;;;;;;;0.80;0.80;;;;;;;-1.70;55.64;99616.59;4783402;30;20671;-83
2022/04/18 02:21:20;;;;;;;0.90;0.90;;;;;;;-1.68;55.70;99616.44;4782992;30;20138;-84
2022/04/18 02:23:47;;;;;;;0.90;0.90;;;;;;;-1.74;56.26;99623.19;4768389;30;20051;-83
2022/04/18 02:26:15;;;;;;;0.82;0.82;;;;;;;-1.76;56.00;99623.31;4782410;30;20087;-82
2022/04/18 02:28:45;;;;;;;0.80;0.80;;;;;;;-1.71;56.05;99614.94;4781764;30;20120;-82
2022/04/18 02:31:13;;;;;;;0.70;0.70;;;;;;;-1.71;56.09;99614.09;4782439;30;20048;-83
2022/04/18 02:33:41;;;;;;;0.80;0.80;;;;;;;-1.77;56.24;99610.25;4782566;30;20129;-83
2022/04/18 02:36:09;;;;;;;0.80;0.80;;;;;;;-1.79;56.49;99617.50;4782474;30;20143;-84
2022/04/18 02:38:36;;;;;;;0.60;0.60;;;;;;;-1.78;56.75;99616.50;4782329;30;20512;-83
2022/04/18 02:41:03;;;;;;;0.70;0.70;;;;;;;-1.73;56.71;99616.06;4784442;29;20047;-83
2022/04/18 02:43:30;;;;;;;0.70;0.70;;;;;;;-1.75;56.85;99619.72;4772547;30;20062;-83
2022/04/18 02:46:04;;;;;;;0.70;0.70;;;;;;;-1.73;56.74;99622.19;4785871;30;20150;-82
2022/04/18 02:48:44;;;;;;;0.70;0.70;;;;;;;-1.65;56.47;99616.97;4785381;30;20117;-82
2022/04/18 02:51:15;;;;;;;0.80;0.80;;;;;;;-1.59;56.58;99618.19;4785463;30;20575;-84
2022/04/18 02:53:42;;;;;;;0.80;0.80;;;;;;;-1.48;56.84;99625.91;4770663;30;20063;-82
2022/04/18 02:56:10;;;;;;;0.90;0.90;;;;;;;-1.45;56.71;99624.75;4785626;30;20055;-82
2022/04/18 02:58:43;;;;;;;0.77;0.77;;;;;;;-1.42;56.85;99630.59;4785595;30;20424;-85
2022/04/18 03:01:10;;;;;;;0.80;0.80;;;;;;;-1.41;56.96;99626.97;4792623;30;20059;-85
2022/04/18 03:03:38;;;;;;;0.80;0.80;;;;;;;-1.34;57.11;99621.91;4788940;30;20055;-85
2022/04/18 03:06:05;;;;;;;0.60;0.60;;;;;;;-1.28;57.14;99613.31;4785086;30;20064;-84
2022/04/18 03:08:33;;;;;;;0.70;0.70;;;;;;;-1.25;57.06;99607.72;4771173;30;20052;-84
2022/04/18 03:11:05;;;;;;;0.80;0.80;;;;;;;-1.21;57.15;99608.25;4770861;30;20055;-84
2022/04/18 03:13:36;;;;;;;0.70;0.70;;;;;;;-1.14;57.07;99609.28;4785053;30;20056;-84
2022/04/18 03:16:13;;;;;;;0.77;0.77;;;;;;;-1.06;56.72;99613.81;4785131;30;20491;-84
2022/04/18 03:18:41;;;;;;;0.88;0.88;;;;;;;-0.96;56.65;99610.09;4784679;30;20090;-84
2022/04/18 03:21:10;;;;;;;0.88;0.88;;;;;;;-0.87;56.57;99606.47;4785127;30;20055;-84
2022/04/18 03:23:38;;;;;;;0.80;0.80;;;;;;;-0.77;56.61;99616.97;4784855;30;20055;-85
2022/04/18 03:26:06;;;;;;;0.90;0.90;;;;;;;-0.71;56.50;99619.03;4770982;30;20151;-85
2022/04/18 03:28:56;;;;;;;0.70;0.70;;;;;;;-0.66;56.66;99619.38;4770396;29;20083;-85
2022/04/18 03:31:23;;;;;;;0.80;0.80;;;;;;;-0.57;56.43;99614.13;4769830;30;20062;-84
2022/04/18 03:33:50;;;;;;;0.85;0.85;;;;;;;-0.44;56.45;99611.84;4770460;30;20405;-84
2022/04/18 03:41:49;;;;;;;0.90;0.90;;;;;;;-0.08;56.47;99607.19;4770020;30;20534;-84
2022/04/18 03:44:17;;;;;;;0.70;0.70;;;;;;;-0.04;56.32;99605.06;4770957;30;20058;-86
2022/04/18 03:46:45;;;;;;;0.88;0.88;;;;;;;0.03;56.74;99608.72;4771030;30;20087;-82
2022/04/18 03:49:14;;;;;;;0.80;0.80;;;;;;;0.08;56.89;99605.59;4769727;30;20086;-86
2022/04/18 03:51:46;;;;;;;0.70;0.70;;;;;;;0.17;57.14;99601.94;4769974;30;20515;-86
2022/04/18 03:54:15;;;;;;;0.70;0.70;;;;;;;0.23;57.33;99596.00;4769522;30;20052;-83
2022/04/18 03:56:43;;;;;;;0.90;0.90;;;;;;;0.33;57.49;99602.00;4765554;30;20146;-89
2022/04/18 03:59:21;;;;;;;0.90;0.90;;;;;;;0.40;57.74;99605.63;4767616;30;20054;-81
2022/04/18 04:02:03;;;;;;;0.80;0.80;;;;;;;0.55;57.56;99602.31;4778747;30;20440;-82
2022/04/18 04:04:33;;;;;;;0.80;0.80;;;;;;;0.63;57.62;99602.31;4765926;30;20419;-82
2022/04/18 04:07:06;;;;;;;0.90;0.90;;;;;;;0.73;57.65;99602.97;4765557;30;20064;-85
2022/04/18 04:09:36;;;;;;;0.80;0.80;;;;;;;0.78;57.78;99600.66;4751911;30;20061;-83
2022/04/18 04:12:08;;;;;;;0.90;0.90;;;;;;;0.88;57.82;99604.97;4766695;30;20111;-84
2022/04/18 04:14:51;;;;;;;0.80;0.80;;;;;;;0.97;57.66;99604.00;4426335;30;9999721;-84
2022/04/18 04:17:27;;;;;;;0.80;0.80;;;;;;;1.05;57.93;99591.50;4745071;30;20567;-83
2022/04/18 04:20:22;;;;;;;0.88;0.88;;;;;;;1.18;58.06;99600.78;4756495;30;20109;-85
2022/04/18 04:23:07;;;;;;;0.80;0.80;;;;;;;1.24;58.28;99602.75;4745380;30;20432;-86
2022/04/18 04:26:09;;;;;;;0.90;0.90;;;;;;;1.30;58.46;99599.44;4753555;30;20107;-84
2022/04/18 04:28:51;;;;;;;0.90;0.90;;;;;;;1.42;57.88;99592.75;4766104;30;20072;-84
2022/04/18 04:31:30;;;;;;;0.90;0.90;;;;;;;1.55;58.22;99591.41;4756624;30;20052;-84
2022/04/18 04:34:11;;;;;;;0.80;0.80;;;;;;;1.65;58.18;99595.50;4752787;30;20091;-87
2022/04/18 04:36:57;;;;;;;0.80;0.80;;;;;;;1.66;58.07;99585.69;4780585;30;20467;-83
2022/04/18 04:39:40;;;;;;;0.80;0.80;;;;;;;1.81;58.04;99596.44;4756101;30;20532;-82
2022/04/18 04:42:14;;;;;;;0.80;0.80;;;;;;;1.83;57.95;99583.78;4770674;30;20078;-82
2022/04/18 04:44:47;;;;;;;0.77;0.77;;;;;;;1.91;57.63;99578.41;4768579;30;20058;-83
2022/04/18 04:47:31;;;;;;;0.85;0.85;;;;;;;2.03;57.21;99590.34;4782805;30;20469;-81
2022/04/18 04:50:06;;;;;;;0.80;0.80;;;;;;;2.01;57.37;99580.88;4772219;30;20522;-88
2022/04/18 04:52:49;;;;;;;0.80;0.80;;;;;;;2.10;57.21;99587.78;4785938;30;20062;-87
2022/04/18 04:55:33;;;;;;;0.80;0.80;;;;;;;2.23;56.98;99579.22;4775749;30;20124;-87
2022/04/18 04:58:20;;;;;;;0.90;0.90;;;;;;;2.27;56.92;99586.69;4769689;30;20059;-84
2022/04/18 05:01:12;;;;;;;0.80;0.80;;;;;;;2.36;56.88;99595.47;4778794;30;20071;-85
2022/04/18 05:04:29;;;;;;;0.77;0.77;;;;;;;2.48;56.31;99582.53;4715857;30;20410;-85
2022/04/18 05:07:09;;;;;;;0.90;0.90;;;;;;;2.59;56.08;99584.78;4713592;30;20072;-83
2022/04/18 05:10:03;;;;;;;0.90;0.90;;;;;;;2.74;56.01;99587.50;4702994;30;20057;-85
2022/04/18 05:12:41;;;;;;;0.90;0.90;;;;;;;2.80;55.79;99573.44;4699318;30;20160;-85
2022/04/18 05:15:19;;;;;;;0.90;0.90;;;;;;;2.91;55.30;99581.03;4727635;30;20059;-84
2022/04/18 05:18:15;;;;;;;0.85;0.85;;;;;;;3.01;55.43;99581.59;4732847;30;20589;-85
2022/04/18 05:20:46;;;;;;;0.80;0.80;;;;;;;3.11;55.18;99578.66;4732278;30;20204;-85
2022/04/18 05:23:21;;;;;;;0.70;0.70;;;;;;;3.24;54.80;99581.53;4735428;30;20052;-85
2022/04/18 05:25:54;;;;;;;0.82;0.82;;;;;;;3.30;54.54;99585.31;4736396;30;20068;-83
2022/04/18 05:28:25;;;;;;;0.80;0.80;;;;;;;3.46;54.60;99586.94;4726366;30;20073;-86
2022/04/18 05:31:06;;;;;;;0.80;0.80;;;;;;;3.64;54.02;99578.56;4701214;30;20061;-84
2022/04/18 05:33:41;;;;;;;0.80;0.80;;;;;;;3.80;53.49;99572.19;4728633;30;20080;-84
2022/04/18 05:36:37;;;;;;;0.80;0.80;;;;;;;3.88;53.04;99580.13;4710853;30;20537;-82
2022/04/18 05:39:10;;;;;;;0.80;0.80;;;;;;;3.90;53.17;99570.09;4753898;30;20068;-83
2022/04/18 05:41:43;;;;;;;0.80;0.80;;;;;;;4.01;53.02;99582.13;4738350;30;20083;-83
2022/04/18 05:44:15;;;;;;;0.80;0.80;;;;;;;4.12;52.50;99584.28;4772505;30;20089;-79
2022/04/18 05:47:00;;;;;;;0.80;0.80;;;;;;;4.22;51.69;99571.44;4446386;29;10000574;-82
2022/04/18 05:49:29;;;;;;;0.77;0.77;;;;;;;4.22;51.31;99571.44;4758707;30;20051;-81
2022/04/18 05:52:04;;;;;;;0.70;0.70;;;;;;;4.32;51.09;99573.81;4753457;30;20520;-81
2022/04/18 05:54:42;;;;;;;0.80;0.80;;;;;;;4.42;51.08;99570.84;4775849;30;20052;-85
2022/04/18 05:57:11;;;;;;;0.80;0.80;;;;;;;4.46;50.64;99574.78;4759871;30;20600;-81
2022/04/18 05:59:48;;;;;;;0.70;0.70;;;;;;;4.52;50.73;99579.34;4771601;30;20192;-82
2022/04/18 06:02:25;;;;;;;0.77;0.77;;;;;;;4.62;50.49;99577.19;4763265;30;20059;-81
2022/04/18 06:05:12;;;;;;;0.75;0.75;;;;;;;4.67;50.07;99577.44;4773937;30;20060;-81
2022/04/18 06:08:04;;;;;;;0.70;0.70;;;;;;;4.64;49.91;99585.03;4758447;30;20785;-81
2022/04/18 06:10:43;;;;;;;0.80;0.80;;;;;;;4.61;49.76;99583.56;4764449;30;20487;-84
2022/04/18 06:13:28;;;;;;;0.90;0.90;;;;;;;4.63;49.15;99583.34;4756076;30;20145;-83
2022/04/18 06:15:57;;;;;;;0.70;0.70;;;;;;;4.69;48.84;99583.44;4746491;30;20056;-84
2022/04/18 06:18:25;;;;;;;0.80;0.80;;;;;;;4.77;48.50;99585.97;4777365;30;20056;-82
2022/04/18 06:20:55;;;;;;;0.70;0.70;;;;;;;4.87;48.28;99576.78;4765709;30;20060;-84
2022/04/18 06:23:22;;;;;;;0.80;0.80;;;;;;;4.93;48.33;99567.97;4757560;30;20079;-82
2022/04/18 06:26:04;;;;;;;0.80;0.80;;;;;;;5.11;47.88;99564.81;4762925;30;20136;-82
2022/04/18 06:28:32;;;;;;;0.80;0.80;;;;;;;5.15;47.97;99569.59;4778007;30;20056;-82
2022/04/18 06:30:59;;;;;;;0.80;0.80;;;;;;;5.22;47.85;99567.78;4777750;30;20162;-82
2022/04/18 06:33:34;;;;;;;0.90;0.90;;;;;;;5.30;47.02;99571.34;4760397;30;20143;-82
2022/04/18 06:36:05;;;;;;;0.70;0.70;;;;;;;5.40;46.53;99567.28;4763249;30;20071;-83
2022/04/18 06:38:40;;;;;;;0.70;0.70;;;;;;;5.40;46.47;99569.13;4748260;30;20055;-82
2022/04/18 06:41:15;;;;;;;0.90;0.90;;;;;;;5.39;46.32;99575.50;4761726;30;20059;-82
2022/04/18 06:43:42;;;;;;;0.80;0.80;;;;;;;5.57;46.17;99569.63;4759318;30;20050;-84
2022/04/18 06:46:13;;;;;;;0.70;0.70;;;;;;;5.69;46.02;99570.72;4772334;30;20121;-81
2022/04/18 06:48:43;;;;;;;0.70;0.70;;;;;;;5.73;45.82;99577.34;4758686;30;20048;-82
2022/04/18 06:51:32;;;;;;;0.80;0.80;;;;;;;5.85;45.27;99577.59;4758130;30;20412;-83
2022/04/18 06:54:05;;;;;;;0.70;0.70;;;;;;;5.93;45.40;99574.75;4762929;30;20047;-83
2022/04/18 06:56:59;;;;;;;0.70;0.70;;;;;;;5.88;45.44;99576.38;4764605;30;20059;-86
2022/04/18 06:59:49;;;;;;;0.80;0.80;;;;;;;5.87;44.98;99575.53;4758299;30;20117;-83
2022/04/18 07:02:21;;;;;;;0.73;0.73;;;;;;;5.89;45.02;99578.84;4752929;30;20575;-82
2022/04/18 07:04:50;;;;;;;0.70;0.70;;;;;;;5.96;44.82;99577.03;4773014;29;20056;-82
2022/04/18 07:07:17;;;;;;;0.70;0.70;;;;;;;5.83;44.70;99568.94;4772445;29;20067;-82
2022/04/18 07:09:44;;;;;;;0.63;0.63;;;;;;;5.85;44.44;99572.25;4735656;30;20056;-81
2022/04/18 07:12:22;;;;;;;0.70;0.70;;;;;;;5.96;43.65;99574.38;4777125;30;20059;-83
2022/04/18 07:14:51;;;;;;;0.70;0.70;;;;;;;6.06;43.99;99576.66;4762994;30;20048;-86
2022/04/18 07:17:18;;;;;;;0.70;0.70;;;;;;;6.26;43.58;99584.78;4770308;30;20055;-84
2022/04/18 07:19:46;;;;;;;0.70;0.70;;;;;;;6.43;43.38;99578.00;4742609;30;20125;-84
2022/04/18 07:22:17;;;;;;;0.70;0.70;;;;;;;6.54;42.92;99575.75;4753703;30;20581;-83
2022/04/18 07:24:44;;;;;;;0.70;0.70;;;;;;;6.67;42.62;99571.22;4762153;30;20877;-83
2022/04/18 07:27:13;;;;;;;0.77;0.77;;;;;;;6.72;42.66;99567.94;4764046;30;20072;-83
2022/04/18 07:29:55;;;;;;;0.80;0.80;;;;;;;6.66;42.66;99563.38;4760090;30;20153;-82
2022/04/18 07:32:22;;;;;;;0.80;0.80;;;;;;;6.82;42.52;99572.88;4765522;30;20419;-83
2022/04/18 07:34:53;;;;;;;0.80;0.80;;;;;;;6.85;42.11;99567.09;4766541;30;20451;-86
2022/04/18 07:38:48;;;;;;;0.80;0.80;;;;;;;7.07;41.76;99559.66;4769404;30;20068;-85
2022/04/18 07:40:30;;;;;;;0.80;0.80;;;;;;;7.25;40.88;99557.16;4763546;30;20503;-87
2022/04/18 07:43:04;;;;;;;0.90;0.90;;;;;;;7.32;40.39;99565.22;4780763;30;20059;-83
2022/04/18 07:45:33;;;;;;;0.80;0.80;;;;;;;7.35;40.24;99552.19;4780213;30;20094;-83
2022/04/18 07:48:00;;;;;;;0.90;0.90;;;;;;;7.43;40.01;99544.94;4785872;30;20064;-85
2022/04/18 07:53:17;;;;;;;0.80;0.80;;;;;;;7.68;39.95;99545.88;4764597;30;20055;-82
2022/04/18 07:55:49;;;;;;;0.80;0.80;;;;;;;7.75;39.56;99544.00;4763565;30;20098;-84
2022/04/18 07:58:17;;;;;;;0.80;0.80;;;;;;;7.92;39.06;99546.19;4764276;30;20124;-84
2022/04/18 08:00:44;;;;;;;0.90;0.90;;;;;;;8.14;39.18;99552.91;4765769;30;20052;-85
2022/04/18 08:03:12;;;;;;;0.70;0.70;;;;;;;8.28;38.94;99544.75;4766306;30;20083;-83
2022/04/18 08:05:49;;;;;;;0.80;0.80;;;;;;;8.35;38.69;99546.38;4766742;30;20054;-83
2022/04/18 08:08:20;;;;;;;0.80;0.80;;;;;;;8.33;38.51;99537.72;4765535;30;20067;-83
2022/04/18 08:10:48;;;;;;;0.80;0.80;;;;;;;8.37;37.97;99543.47;4764699;30;20052;-81
2022/04/18 08:13:19;;;;;;;0.80;0.80;;;;;;;8.45;38.01;99551.31;4756901;30;20081;-82
2022/04/18 08:16:07;;;;;;;0.80;0.80;;;;;;;8.59;37.94;99549.38;4774653;30;20075;-82
2022/04/18 08:18:44;;;;;;;0.80;0.80;;;;;;;8.69;37.61;99541.63;4750239;30;20139;-82
2022/04/18 08:21:23;;;;;;;0.80;0.80;;;;;;;9.17;36.87;99537.50;4774932;29;20075;-81
2022/04/18 08:23:52;;;;;;;0.85;0.85;;;;;;;9.47;36.46;99538.41;4779994;30;20052;-83
2022/04/18 08:26:52;;;;;;;0.90;0.90;;;;;;;10.13;35.70;99541.34;4747938;30;20134;-83
2022/04/18 08:29:24;;;;;;;0.90;0.90;;;;;;;10.22;34.90;99531.84;4730893;30;20056;-82
2022/04/18 08:32:16;;;;;;;0.88;0.88;;;;;;;10.27;35.05;99529.28;4742483;30;20082;-83
2022/04/18 08:34:44;;;;;;;0.80;0.80;;;;;;;10.25;34.81;99522.47;4730328;30;20075;-83
2022/04/18 08:37:17;;;;;;;0.90;0.90;;;;;;;10.28;34.55;99519.34;4730100;30;20060;-84
2022/04/18 08:40:07;;;;;;;0.90;0.90;;;;;;;10.57;34.05;99531.16;4744486;30;20173;-82
2022/04/18 08:42:37;;;;;;;0.80;0.80;;;;;;;10.73;34.31;99525.09;4744982;30;20487;-83
2022/04/18 08:45:08;;;;;;;0.80;0.80;;;;;;;11.06;33.53;99521.84;4730612;30;20048;-84
2022/04/18 08:53:28;;;;;;;0.80;0.80;;;;;;;11.52;32.06;99515.78;4718337;30;20056;-83
2022/04/18 08:56:06;;;;;;;0.80;0.80;;;;;;;11.69;31.78;99513.97;4709711;30;20056;-82
2022/04/18 08:58:38;;;;;;;0.80;0.80;;;;;;;11.82;31.72;99510.19;4713678;30;20155;-82
2022/04/18 09:01:11;;;;;;;0.80;0.80;;;;;;;11.85;31.63;99498.88;4725041;30;20056;-81
2022/04/18 09:03:46;;;;;;;0.80;0.80;;;;;;;11.90;31.41;99501.72;4765662;30;20056;-82
2022/04/18 09:06:15;;;;;;;0.80;0.80;;;;;;;12.12;31.06;99499.16;4739547;30;20056;-83
2022/04/18 09:08:56;;;;;;;0.80;0.80;;;;;;;12.21;30.94;99494.19;4766215;30;20083;-83
2022/04/18 09:11:37;;;;;;;0.80;0.80;;;;;;;12.61;30.27;99495.94;4766301;30;20051;-86
2022/04/18 09:14:15;;;;;;;0.90;0.90;;;;;;;12.86;30.09;99495.53;4765934;30;20074;-82
2022/04/18 09:16:51;;;;;;;0.80;0.80;;;;;;;13.18;29.34;99487.59;4759175;30;20047;-83
2022/04/18 09:19:44;;;;;;;0.90;0.90;;;;;;;13.42;28.92;99489.06;4748734;30;20155;-84
2022/04/18 09:22:24;;;;;;;0.88;0.88;;;;;;;13.55;29.08;99485.16;4766681;30;20059;-84
2022/04/18 09:24:58;;;;;;;0.90;0.90;;;;;;;13.75;28.76;99468.31;4752011;30;20064;-82
2022/04/18 09:27:39;;;;;;;0.90;0.90;;;;;;;13.61;28.79;99469.75;4766279;30;20095;-83
2022/04/18 09:30:17;;;;;;;0.90;0.90;;;;;;;13.60;28.92;99470.84;4767403;30;20076;-87
2022/04/18 09:33:06;;;;;;;0.90;0.90;;;;;;;13.78;28.81;99462.38;4780789;30;20052;-82
2022/04/18 09:35:45;;;;;;;0.90;0.90;;;;;;;13.99;28.47;99468.00;4779589;30;20083;-83
2022/04/18 09:38:18;;;;;;;0.90;0.90;;;;;;;14.70;27.80;99467.84;4767949;30;20310;-83
2022/04/18 09:41:08;;;;;;;0.80;0.80;;;;;;;14.74;27.37;99458.94;4769263;30;20133;-84
2022/04/18 09:43:48;;;;;;;0.90;0.90;;;;;;;14.34;27.43;99464.81;4767999;30;20059;-84
2022/04/18 09:46:26;;;;;;;0.90;0.90;;;;;;;14.41;27.06;99470.06;4766431;30;20055;-84
2022/04/18 09:49:13;;;;;;;0.80;0.80;;;;;;;14.60;27.31;99463.16;4759450;30;20063;-86
2022/04/18 09:51:54;;;;;;;0.80;0.80;;;;;;;14.84;26.95;99457.38;4767366;30;20540;-86
2022/04/18 09:54:32;;;;;;;0.80;0.80;;;;;;;15.08;26.54;99458.59;4768781;30;20059;-85
2022/04/18 09:57:08;;;;;;;0.82;0.82;;;;;;;15.24;25.89;99462.22;4781568;30;20251;-85
2022/04/18 09:59:38;;;;;;;0.80;0.80;;;;;;;15.08;26.19;99465.94;4780183;30;20055;-82
2022/04/18 10:02:13;;;;;;;0.80;0.80;;;;;;;15.13;26.16;99464.06;4779845;30;20779;-84
2022/04/18 10:04:42;;;;;;;0.80;0.80;;;;;;;15.12;26.30;99448.84;4745894;30;20063;-85
2022/04/18 10:07:10;;;;;;;0.80;0.80;;;;;;;15.42;26.31;99454.69;4767030;30;20098;-86
2022/04/18 10:09:40;;;;;;;0.80;0.80;;;;;;;16.42;25.34;99449.78;4767523;30;20428;-85
2022/04/18 10:12:10;;;;;;;0.70;0.70;;;;;;;16.95;24.52;99456.88;4768149;30;20101;-85
2022/04/18 10:14:47;;;;;;;0.90;0.90;;;;;;;17.06;24.25;99455.75;4766271;30;20056;-85
2022/04/18 10:17:21;;;;;;;0.90;0.90;;;;;;;17.21;24.38;99457.63;4767293;30;20067;-85
2022/04/18 10:20:25;;;;;;;0.90;0.90;;;;;;;17.08;24.13;99448.09;4769224;30;20059;-85
2022/04/18 10:23:25;;;;;;;0.80;0.80;;;;;;;16.82;24.53;99450.88;4765001;30;20082;-85
2022/04/18 10:26:34;;;;;;;0.90;0.90;;;;;;;16.96;23.94;99450.31;4763433;30;20059;-85
2022/04/18 10:29:11;;;;;;;0.80;0.80;;;;;;;17.47;23.45;99447.44;4778740;30;20063;-83
2022/04/18 10:31:41;;;;;;;0.80;0.80;;;;;;;17.80;22.74;99415.09;4752945;30;20051;-82
2022/04/18 10:34:13;;;;;;;0.73;0.73;;;;;;;17.57;22.67;99433.72;4766292;30;20459;-85
2022/04/18 10:36:48;;;;;;;0.80;0.80;;;;;;;17.86;22.85;99433.09;4766838;30;20052;-86
2022/04/18 10:39:19;;;;;;;0.80;0.80;;;;;;;17.73;23.16;99432.56;4782145;30;20147;-85
2022/04/18 10:41:51;;;;;;;0.82;0.82;;;;;;;18.68;22.08;99440.66;4783164;30;20055;-85
2022/04/18 10:44:20;;;;;;;0.80;0.80;;;;;;;18.35;21.61;99429.47;4768523;30;20158;-85
2022/04/18 10:47:01;;;;;;;0.80;0.80;;;;;;;18.12;21.83;99436.47;4782609;30;20055;-84
2022/04/18 10:49:33;;;;;;;0.70;0.70;;;;;;;18.61;22.24;99427.34;4783797;30;20063;-85
2022/04/18 10:52:09;;;;;;;0.80;0.80;;;;;;;18.21;21.81;99433.97;4771899;30;20055;-85
2022/04/18 10:54:39;;;;;;;0.80;0.80;;;;;;;17.74;22.39;99428.75;4770108;30;20468;-86
2022/04/18 10:57:30;;;;;;;0.80;0.80;;;;;;;17.95;22.34;99421.28;4754351;30;20539;-86
2022/04/18 11:00:00;;;;;;;0.70;0.70;;;;;;;17.61;22.22;99425.81;4767116;30;20063;-86
2022/04/18 11:02:42;;;;;;;0.80;0.80;;;;;;;17.56;22.57;99423.94;4770827;30;20516;-84
2022/04/18 11:05:20;;;;;;;0.80;0.80;;;;;;;18.26;22.00;99423.81;4785585;30;20139;-86
2022/04/18 11:08:02;;;;;;;0.80;0.80;;;;;;;18.27;21.94;99419.16;4770573;30;20162;-86
2022/04/18 11:10:39;;;;;;;0.70;0.70;;;;;;;18.48;22.11;99411.59;4770769;30;20055;-84
2022/04/18 11:13:37;;;;;;;0.80;0.80;;;;;;;18.42;21.97;99419.03;4782208;30;20066;-85
2022/04/18 11:16:27;;;;;;;0.80;0.80;;;;;;;18.11;22.08;99413.00;4756089;30;20048;-86
2022/04/18 11:19:23;;;;;;;0.80;0.80;;;;;;;18.22;21.83;99411.81;4772758;30;20517;-86
2022/04/18 11:22:01;;;;;;;0.80;0.80;;;;;;;18.90;21.20;99410.94;4772043;30;20332;-85
2022/04/18 11:25:06;;;;;;;0.80;0.80;;;;;;;18.23;22.23;99407.16;4770059;30;20047;-84
2022/04/18 11:27:38;;;;;;;0.80;0.80;;;;;;;18.59;21.53;99403.03;4754640;30;20478;-85
2022/04/18 11:30:18;;;;;;;0.70;0.70;;;;;;;19.35;20.93;99408.81;4783787;30;20087;-84
2022/04/18 11:32:59;;;;;;;0.70;0.70;;;;;;;18.83;20.98;99397.59;4756171;30;20060;-85
2022/04/18 11:35:40;;;;;;;0.70;0.70;;;;;;;18.57;21.13;99405.22;4755872;30;20060;-85
2022/04/18 11:38:10;;;;;;;0.77;0.77;;;;;;;18.42;21.35;99391.69;4769707;30;20059;-85
2022/04/18 11:40:39;;;;;;;0.70;0.70;;;;;;;18.27;21.75;99394.56;4770629;30;20116;-84
2022/04/18 11:43:13;;;;;;;0.70;0.70;;;;;;;18.69;21.31;99399.38;4769065;30;20055;-85
2022/04/18 11:45:40;;;;;;;;;;;;;;;19.01;21.12;99389.78;4771102;30;20146;-85
2022/04/18 11:48:11;;;;;;;0.70;0.70;;;;;;;19.13;21.13;99381.16;4772450;30;19937;-85
2022/04/18 11:50:43;;;;;;;0.80;0.80;;;;;;;19.18;21.02;99381.09;4784040;30;20091;-85
2022/04/18 11:53:17;;;;;;;0.70;0.70;;;;;;;18.82;21.14;99386.97;4784128;30;20079;-84
2022/04/18 11:55:47;;;;;;;0.80;0.80;;;;;;;19.48;20.99;99391.66;4770466;30;20086;-85
2022/04/18 11:58:20;;;;;;;0.80;0.80;;;;;;;20.05;20.43;99388.13;4770714;30;20058;-85
2022/04/18 12:09:19;;;;;;;0.70;0.70;;;;;;;19.72;19.97;99376.31;4768584;30;20056;-84
2022/04/18 12:11:46;;;;;;;0.70;0.70;;;;;;;19.77;20.06;99366.09;4439529;29;10000675;-84
2022/04/18 12:14:14;;;;;;;0.70;0.70;;;;;;;19.71;20.14;99367.28;4771356;30;20147;-85
2022/04/18 12:16:42;;;;;;;0.70;0.70;;;;;;;19.79;20.00;99361.13;4763242;30;20090;-83
2022/04/18 12:19:11;;;;;;;0.70;0.70;;;;;;;19.79;20.07;99358.41;4753120;30;20083;-84
2022/04/18 12:21:39;;;;;;;0.70;0.70;;;;;;;19.80;20.29;99354.56;4756096;30;20477;-84
2022/04/18 12:24:08;;;;;;;0.70;0.70;;;;;;;20.10;19.42;99347.78;4767244;30;20179;-84
2022/04/18 12:26:35;;;;;;;0.75;0.75;;;;;;;20.13;19.84;99347.19;4767004;30;20056;-84
2022/04/18 12:29:11;;;;;;;0.70;0.70;;;;;;;20.71;19.05;99345.94;4768531;30;20142;-86
2022/04/18 12:31:39;;;;;;;0.70;0.70;;;;;;;20.37;19.53;99342.69;4767775;30;20098;-86
2022/04/18 12:34:14;;;;;;;0.70;0.70;;;;;;;20.07;19.66;99345.63;4780003;30;20067;-86
2022/04/18 12:36:42;;;;;;;0.70;0.70;;;;;;;20.28;19.43;99340.66;4773658;30;20509;-85
2022/04/18 12:39:19;;;;;;;0.70;0.70;;;;;;;20.18;19.80;99338.09;4766595;30;20075;-83